Terminal Aerodrome Forecast
Issued by NWS

Home | Current Version | Previous Version | Text Only | Print | Product List | Glossary On
Versions: 1 2 3 4 5 6 7 8 9 10 11 12 13 14 15 16 17 18 19 20 21 22 23 24 25 26 27 28 29 30 31 32 33 34 35 36 37 38 39 40
000
FTUS43 KDTX 300500
TAFPTK
TAF
KPTK 300527Z 3006/3106 27005KT P6SM SCT040 SCT100
     FM301200 27007KT P6SM SCT030
     FM301700 27010KT P6SM BKN050 BKN150 PROB30 3020/3024 5SM -SHRA
      BKN035
     FM310000 29006KT P6SM BKN070=

USA.gov is the U.S. government's official web portal to all federal, state and local government web resources and services.